createdAt,value
2022-08-16T00:03:14.924Z,3.57
2022-08-16T00:05:48.374Z,3.07
2022-08-16T00:08:35.629Z,3.00
2022-08-16T00:11:04.187Z,3.17
2022-08-16T00:13:31.719Z,3.50
2022-08-16T00:17:05.458Z,3.87
2022-08-16T00:18:56.759Z,3.40
2022-08-16T00:21:26.086Z,3.10
2022-08-16T00:23:57.414Z,3.50
2022-08-16T00:26:34.858Z,3.10
2022-08-16T00:29:06.317Z,3.07
2022-08-16T00:31:47.260Z,3.10
2022-08-16T00:34:22.951Z,3.30
2022-08-16T00:37:10.594Z,3.27
2022-08-16T00:39:39.008Z,3.67
2022-08-16T00:42:10.092Z,3.83
2022-08-16T00:44:38.370Z,3.97
2022-08-16T00:47:07.786Z,3.47
2022-08-16T00:49:39.756Z,3.40
2022-08-16T00:52:29.865Z,2.70
2022-08-16T00:54:59.552Z,3.60
2022-08-16T00:57:58.953Z,3.40
2022-08-16T01:00:20.190Z,3.20
2022-08-16T01:02:51.744Z,3.40
2022-08-16T01:05:19.548Z,3.70
2022-08-16T01:07:53.925Z,3.70
2022-08-16T01:10:32.436Z,3.90
2022-08-16T01:13:04.560Z,2.80
2022-08-16T01:15:34.217Z,3.37
2022-08-16T01:18:02.910Z,3.47
2022-08-16T01:20:32.794Z,3.10
2022-08-16T01:23:28.085Z,3.50
2022-08-16T01:26:34.658Z,3.73
2022-08-16T01:29:06.371Z,2.93
2022-08-16T01:31:42.789Z,3.60
2022-08-16T01:34:22.839Z,3.33
2022-08-16T01:37:04.438Z,3.13
2022-08-16T01:39:35.372Z,3.50
2022-08-16T01:42:04.159Z,3.00
2022-08-16T01:44:41.239Z,3.37
2022-08-16T01:47:09.993Z,3.30
2022-08-16T01:49:43.706Z,3.30
2022-08-16T01:52:29.207Z,3.23
2022-08-16T01:54:58.234Z,3.37
2022-08-16T01:57:27.506Z,3.13
2022-08-16T01:59:55.485Z,3.50
2022-08-16T02:02:27.488Z,3.33
2022-08-16T02:04:57.557Z,3.17
2022-08-16T02:07:25.599Z,3.23
2022-08-16T02:09:57.267Z,3.33
2022-08-16T02:12:50.504Z,3.13
2022-08-16T02:15:15.511Z,3.57
2022-08-16T02:17:43.474Z,3.30
2022-08-16T02:20:12.828Z,3.53
2022-08-16T02:22:40.511Z,3.57
2022-08-16T02:25:11.576Z,2.90
2022-08-16T02:27:43.267Z,3.83
2022-08-16T02:30:35.690Z,4.40
2022-08-16T02:33:03.158Z,4.20
2022-08-16T02:35:31.289Z,2.70
2022-08-16T02:38:01.763Z,3.27
2022-08-16T02:40:36.706Z,3.33
2022-08-16T02:43:05.155Z,3.23
2022-08-16T02:45:32.638Z,3.80
2022-08-16T02:48:29.751Z,3.70
2022-08-16T02:50:54.029Z,3.30
2022-08-16T02:53:29.935Z,4.33
2022-08-16T02:55:57.383Z,3.63
2022-08-16T02:58:25.391Z,3.93
2022-08-16T03:00:56.166Z,3.53
2022-08-16T03:03:25.711Z,3.97
2022-08-16T03:05:53.710Z,3.77
2022-08-16T03:08:52.282Z,3.60
2022-08-16T03:11:18.026Z,3.93
2022-08-16T03:13:51.390Z,4.20
2022-08-16T03:16:33.065Z,4.20
2022-08-16T03:19:07.664Z,3.67
2022-08-16T03:21:37.960Z,4.13
2022-08-16T03:24:27.622Z,4.00
2022-08-16T03:27:02.981Z,4.17
2022-08-16T03:29:32.055Z,3.83
2022-08-16T03:32:01.177Z,4.00
2022-08-16T03:34:30.046Z,3.83
2022-08-16T03:36:58.052Z,4.47
2022-08-16T03:39:25.723Z,4.97
2022-08-16T03:41:59.845Z,3.97
2022-08-16T03:44:44.758Z,4.50
2022-08-16T03:47:19.170Z,4.00
2022-08-16T03:49:51.263Z,4.47
2022-08-16T03:52:23.922Z,4.00
2022-08-16T03:54:59.672Z,3.87
2022-08-16T03:57:32.184Z,5.23
2022-08-16T04:00:10.932Z,4.47
2022-08-16T04:02:48.870Z,4.27
2022-08-16T04:05:16.992Z,4.10
2022-08-16T04:07:46.737Z,4.40
2022-08-16T04:10:36.060Z,3.97
2022-08-16T04:13:05.086Z,4.57
2022-08-16T04:15:48.103Z,3.93
2022-08-16T04:18:20.654Z,4.43
2022-08-16T04:20:49.882Z,3.97
2022-08-16T04:23:17.419Z,4.73
2022-08-16T04:25:47.199Z,4.77
2022-08-16T04:28:52.230Z,4.93
2022-08-16T04:31:02.543Z,4.37
2022-08-16T04:33:35.123Z,5.80
2022-08-16T04:36:02.898Z,4.70
2022-08-16T04:38:32.561Z,5.10
2022-08-16T04:41:00.094Z,5.17
2022-08-16T04:43:27.760Z,5.90
2022-08-16T04:46:00.635Z,6.03
2022-08-16T04:48:32.876Z,4.73
2022-08-16T04:51:11.593Z,5.13
2022-08-16T04:53:41.489Z,4.83
2022-08-16T04:56:11.170Z,5.30
2022-08-16T04:58:45.834Z,4.87
2022-08-16T05:01:15.220Z,5.73
2022-08-16T05:04:01.453Z,5.43
2022-08-16T05:06:44.905Z,5.87
2022-08-16T05:09:23.062Z,5.20
2022-08-16T05:11:50.844Z,4.97
2022-08-16T05:14:20.340Z,4.07
2022-08-16T05:17:06.072Z,4.37
2022-08-16T05:19:36.020Z,3.67
2022-08-16T05:22:04.037Z,4.20
2022-08-16T05:24:32.462Z,3.77
2022-08-16T05:26:59.568Z,3.47
2022-08-16T05:29:57.600Z,4.00
2022-08-16T05:32:32.570Z,3.13
2022-08-16T05:35:04.984Z,3.73
2022-08-16T05:37:39.731Z,3.50
2022-08-16T05:40:09.290Z,3.50
2022-08-16T05:42:40.517Z,3.17
2022-08-16T05:45:14.002Z,3.23
2022-08-16T05:47:49.168Z,3.30
2022-08-16T05:50:33.889Z,3.00
2022-08-16T05:53:02.185Z,3.07
2022-08-16T05:55:29.992Z,3.60
2022-08-16T05:57:57.869Z,3.20
2022-08-16T06:00:25.454Z,2.80
2022-08-16T06:02:53.183Z,3.30
2022-08-16T06:05:21.045Z,2.67
2022-08-16T06:07:58.299Z,3.00
2022-08-16T06:10:33.042Z,3.20
2022-08-16T06:13:01.612Z,2.22
2022-08-16T06:15:30.632Z,2.83
2022-08-16T06:17:58.381Z,2.40
2022-08-16T06:20:35.466Z,2.88
2022-08-16T06:23:17.031Z,2.95
2022-08-16T06:25:52.126Z,2.55
2022-08-16T06:28:35.758Z,2.55
2022-08-16T06:31:05.124Z,2.85
2022-08-16T06:33:41.519Z,2.53
2022-08-16T06:36:10.255Z,3.00
2022-08-16T06:38:38.917Z,3.30
2022-08-16T06:41:24.266Z,2.60
2022-08-16T06:43:55.467Z,2.90
2022-08-16T06:46:31.922Z,2.73
2022-08-16T06:49:00.451Z,2.83
2022-08-16T06:51:45.789Z,2.80
2022-08-16T06:54:16.764Z,3.50
2022-08-16T06:56:44.285Z,3.00
2022-08-16T06:59:13.328Z,2.97
2022-08-16T07:01:46.229Z,3.43
2022-08-16T07:04:31.761Z,2.27
2022-08-16T07:07:01.344Z,2.90
2022-08-16T07:09:29.687Z,3.60
2022-08-16T07:12:03.755Z,3.00
2022-08-16T07:14:33.772Z,3.07
2022-08-16T07:17:02.911Z,3.43
2022-08-16T07:20:02.066Z,5.07
2022-08-16T07:22:36.677Z,2.77
2022-08-16T07:25:07.605Z,3.37
2022-08-16T07:27:37.304Z,4.27
2022-08-16T07:30:44.953Z,3.70
2022-08-16T07:32:56.520Z,3.80
2022-08-16T07:35:24.194Z,4.17
2022-08-16T07:37:52.820Z,4.07
2022-08-16T07:40:31.888Z,3.20
2022-08-16T07:43:07.991Z,3.43
2022-08-16T07:45:35.527Z,3.80
2022-08-16T07:48:11.450Z,4.17
2022-08-16T07:50:57.729Z,4.30
2022-08-16T07:53:31.045Z,4.83
2022-08-16T07:55:59.310Z,3.47
2022-08-16T07:58:34.475Z,4.57
2022-08-16T08:01:04.944Z,3.63
2022-08-16T08:03:41.542Z,4.47
2022-08-16T08:06:11.867Z,3.93
2022-08-16T08:08:50.284Z,4.10
2022-08-16T08:11:21.438Z,4.27
2022-08-16T08:13:50.739Z,3.70
2022-08-16T08:16:19.602Z,4.60
2022-08-16T08:19:00.439Z,4.13
2022-08-16T08:22:01.327Z,4.93
2022-08-16T08:24:16.778Z,4.20
2022-08-16T08:26:44.564Z,4.63
2022-08-16T08:29:22.840Z,3.93
2022-08-16T08:31:53.087Z,4.57
2022-08-16T08:34:22.280Z,4.20
2022-08-16T08:36:54.459Z,5.03
2022-08-16T08:39:23.012Z,5.13
2022-08-16T08:41:51.307Z,3.97
2022-08-16T08:44:28.324Z,4.33
2022-08-16T08:47:00.385Z,5.50
2022-08-16T08:49:46.308Z,4.93
2022-08-16T08:52:34.536Z,5.13
2022-08-16T08:55:09.142Z,4.00
2022-08-16T08:57:39.416Z,4.10
2022-08-16T09:00:13.625Z,4.63
2022-08-16T09:02:45.602Z,4.83
2022-08-16T09:05:19.963Z,5.03
2022-08-16T09:08:01.471Z,4.60
2022-08-16T09:10:33.920Z,5.10
2022-08-16T09:13:08.032Z,4.20
2022-08-16T09:15:38.973Z,4.90
2022-08-16T09:18:24.792Z,4.57
2022-08-16T09:20:59.352Z,4.33
2022-08-16T09:23:36.601Z,4.90
2022-08-16T09:26:46.237Z,3.97
2022-08-16T09:29:15.289Z,4.20
2022-08-16T09:31:41.355Z,4.00
2022-08-16T09:34:10.409Z,4.17
2022-08-16T09:36:45.192Z,4.60
2022-08-16T09:39:15.868Z,4.73
2022-08-16T09:41:53.950Z,3.90
2022-08-16T09:45:09.266Z,4.50
2022-08-16T09:47:10.439Z,4.40
2022-08-16T09:49:41.092Z,4.47
2022-08-16T09:52:09.908Z,4.47
2022-08-16T09:54:38.564Z,4.17
2022-08-16T09:57:12.287Z,4.20
2022-08-16T09:59:42.088Z,4.27
2022-08-16T10:02:27.459Z,4.50
2022-08-16T10:04:57.641Z,3.90
2022-08-16T10:07:44.548Z,3.70
2022-08-16T10:10:19.005Z,4.80
2022-08-16T10:12:58.690Z,3.80
2022-08-16T10:15:26.104Z,4.30
2022-08-16T10:18:01.035Z,3.97
2022-08-16T10:20:32.040Z,4.00
2022-08-16T10:23:05.748Z,4.30
2022-08-16T10:27:16.172Z,4.50
2022-08-16T10:28:32.558Z,4.37
2022-08-16T10:31:08.771Z,4.23
2022-08-16T10:33:40.273Z,3.83
2022-08-16T10:36:08.841Z,4.00
2022-08-16T10:38:39.111Z,4.20
2022-08-16T10:41:11.067Z,3.93
2022-08-16T10:43:43.751Z,4.00
2022-08-16T10:46:40.198Z,4.00
2022-08-16T10:49:05.217Z,3.63
2022-08-16T10:51:33.533Z,3.60
2022-08-16T10:54:01.326Z,4.13
2022-08-16T10:56:55.347Z,3.80
2022-08-16T10:59:39.014Z,3.80
2022-08-16T11:05:08.657Z,4.03
2022-08-16T11:07:43.615Z,3.30
2022-08-16T11:10:20.494Z,3.70
2022-08-16T11:12:48.588Z,3.10
2022-08-16T11:15:20.372Z,3.50
2022-08-16T11:18:36.764Z,3.75
2022-08-16T11:20:42.285Z,3.17
2022-08-16T11:23:13.007Z,3.50
2022-08-16T11:26:16.519Z,3.10
2022-08-16T11:31:19.850Z,3.35
2022-08-16T11:33:52.898Z,3.33
2022-08-16T11:36:27.883Z,3.63
2022-08-16T11:38:58.686Z,3.20
2022-08-16T11:41:30.820Z,4.35
2022-08-16T11:44:00.422Z,3.22
2022-08-16T11:46:44.730Z,3.40
2022-08-16T11:49:14.505Z,3.13
2022-08-16T11:51:43.636Z,4.57
2022-08-16T11:54:20.992Z,3.30
2022-08-16T11:56:53.032Z,3.97
2022-08-16T11:59:28.763Z,2.97
2022-08-16T12:02:11.587Z,3.50
2022-08-16T12:04:51.643Z,2.80
2022-08-16T12:07:19.920Z,2.80
2022-08-16T12:09:53.177Z,2.85
2022-08-16T12:12:23.437Z,3.40
2022-08-16T12:14:59.265Z,2.55
2022-08-16T12:17:32.450Z,3.20
2022-08-16T12:20:01.744Z,3.30
2022-08-16T12:22:33.916Z,2.60
2022-08-16T12:25:14.401Z,3.55
2022-08-16T12:27:45.840Z,2.80
2022-08-16T12:30:26.991Z,2.60
2022-08-16T12:33:01.020Z,2.78
2022-08-16T12:35:32.828Z,2.85
2022-08-16T12:38:01.392Z,3.30
2022-08-16T12:40:50.789Z,3.20
2022-08-16T12:43:20.928Z,2.92
2022-08-16T12:45:53.724Z,2.70
2022-08-16T12:48:34.071Z,2.70
2022-08-16T12:51:13.681Z,3.17
2022-08-16T12:53:48.488Z,3.00
2022-08-16T12:56:18.903Z,2.63
2022-08-16T12:58:50.570Z,3.00
2022-08-16T13:01:28.703Z,3.60
2022-08-16T13:04:20.375Z,2.75
2022-08-16T13:06:46.229Z,3.50
2022-08-16T13:09:15.497Z,3.03
2022-08-16T13:11:54.947Z,3.72
2022-08-16T13:14:32.246Z,3.50
2022-08-16T13:17:05.205Z,2.70
2022-08-16T13:20:03.745Z,3.38
2022-08-16T13:22:24.250Z,3.20
2022-08-16T13:24:53.227Z,3.17
2022-08-16T13:27:20.862Z,3.30
2022-08-16T13:30:21.769Z,3.50
2022-08-16T13:32:56.064Z,3.47
2022-08-16T13:35:24.456Z,3.35
2022-08-16T13:37:52.589Z,3.88
2022-08-16T13:40:22.036Z,3.25
2022-08-16T13:42:49.401Z,3.58
2022-08-16T13:45:17.833Z,3.33
2022-08-16T13:47:47.626Z,3.40
2022-08-16T13:50:31.154Z,3.30
2022-08-16T13:53:08.247Z,3.13
2022-08-16T13:55:35.480Z,3.05
2022-08-16T13:58:37.047Z,3.00
2022-08-16T14:00:52.909Z,2.70
2022-08-16T14:03:20.416Z,3.30
2022-08-16T14:05:47.820Z,3.75
2022-08-16T14:08:15.197Z,2.95
2022-08-16T14:10:42.462Z,3.38
2022-08-16T14:13:19.788Z,2.97
2022-08-16T14:15:48.959Z,2.92
2022-08-16T14:18:20.459Z,2.80
2022-08-16T14:20:51.073Z,3.10
2022-08-16T14:23:21.791Z,3.00
2022-08-16T14:25:53.601Z,2.95
2022-08-16T14:28:21.946Z,3.08
2022-08-16T14:30:51.388Z,2.63
2022-08-16T14:33:19.046Z,3.47
2022-08-16T14:35:49.306Z,3.10
2022-08-16T14:38:19.032Z,2.88
2022-08-16T14:40:55.146Z,3.60
2022-08-16T14:43:24.545Z,3.13
2022-08-16T14:45:54.879Z,2.97
2022-08-16T14:48:26.457Z,2.63
2022-08-16T14:50:54.621Z,3.03
2022-08-16T14:53:23.886Z,2.70
2022-08-16T14:55:51.695Z,2.75
2022-08-16T14:58:20.238Z,2.65
2022-08-16T15:01:02.828Z,3.00
2022-08-16T15:03:30.212Z,2.65
2022-08-16T15:06:01.707Z,2.75
2022-08-16T15:08:34.007Z,3.05
2022-08-16T15:11:05.848Z,2.83
2022-08-16T15:13:36.031Z,3.17
2022-08-16T15:16:04.689Z,2.40
2022-08-16T15:18:32.505Z,3.13
2022-08-16T15:21:01.660Z,2.70
2022-08-16T15:23:28.929Z,2.88
2022-08-16T15:26:02.990Z,2.72
2022-08-16T15:28:34.788Z,2.78
2022-08-16T15:31:04.190Z,3.20
2022-08-16T15:33:33.857Z,3.03
2022-08-16T15:36:04.002Z,3.05
2022-08-16T15:38:55.807Z,2.80
2022-08-16T15:41:38.322Z,2.75
2022-08-16T15:44:10.857Z,2.50
2022-08-16T15:46:56.563Z,3.08
2022-08-16T15:49:37.047Z,2.50
2022-08-16T15:52:29.059Z,2.25
2022-08-16T15:54:59.064Z,2.70
2022-08-16T15:57:30.239Z,3.08
2022-08-16T16:00:14.714Z,3.25
2022-08-16T16:02:43.652Z,3.00
2022-08-16T16:05:11.018Z,2.70
2022-08-16T16:07:40.787Z,3.67
2022-08-16T16:10:13.172Z,2.60
2022-08-16T16:12:51.091Z,2.58
2022-08-16T16:15:25.733Z,3.20
2022-08-16T16:17:53.855Z,2.92
2022-08-16T16:20:24.560Z,2.72
2022-08-16T16:23:02.610Z,2.78
2022-08-16T16:25:31.178Z,2.90
2022-08-16T16:28:00.630Z,3.00
2022-08-16T16:30:44.521Z,2.45
2022-08-16T16:33:15.853Z,3.30
2022-08-16T16:35:55.143Z,3.10
2022-08-16T16:38:26.940Z,2.80
2022-08-16T16:40:54.621Z,3.03
2022-08-16T16:43:25.953Z,2.58
2022-08-16T16:46:00.102Z,2.53
2022-08-16T16:48:29.495Z,2.50
2022-08-16T16:51:08.694Z,2.40
2022-08-16T16:53:40.474Z,3.63
2022-08-16T16:56:10.479Z,3.28
2022-08-16T16:58:53.466Z,2.75
2022-08-16T17:01:24.148Z,3.20
2022-08-16T17:04:19.169Z,3.10
2022-08-16T17:06:53.210Z,3.15
2022-08-16T17:09:21.088Z,3.15
2022-08-16T17:11:55.070Z,3.30
2022-08-16T17:14:32.668Z,2.70
2022-08-16T17:17:08.372Z,2.30
2022-08-16T17:19:41.153Z,3.10
2022-08-16T17:22:19.867Z,2.97
2022-08-16T17:24:50.521Z,3.40
2022-08-16T17:30:16.243Z,2.85
2022-08-16T17:32:48.785Z,2.83
2022-08-16T17:35:34.267Z,3.30
2022-08-16T17:38:04.511Z,3.30
2022-08-16T17:39:28.563Z,3.63
2022-08-16T17:40:47.224Z,3.10
2022-08-16T17:43:28.082Z,3.30
2022-08-16T17:45:56.256Z,3.28
2022-08-16T17:48:24.433Z,3.27
2022-08-16T17:50:54.431Z,3.00
2022-08-16T17:53:22.683Z,3.37
2022-08-16T17:55:50.344Z,3.03
2022-08-16T17:58:22.822Z,2.87
2022-08-16T18:00:53.617Z,3.87
2022-08-16T18:04:08.299Z,3.20
2022-08-16T18:06:20.900Z,2.90
2022-08-16T18:08:51.162Z,3.20
2022-08-16T18:11:26.100Z,3.33
2022-08-16T18:13:55.044Z,3.40
2022-08-16T18:16:22.284Z,3.20
2022-08-16T18:18:49.479Z,3.10
2022-08-16T18:21:16.665Z,3.30
2022-08-16T18:23:43.982Z,3.30
2022-08-16T18:26:11.201Z,3.17
2022-08-16T18:28:38.481Z,3.00
2022-08-16T18:31:07.357Z,3.40
2022-08-16T18:33:43.131Z,3.23
2022-08-16T18:36:19.999Z,4.03
2022-08-16T18:38:50.299Z,3.17
2022-08-16T18:41:19.138Z,3.70
2022-08-16T18:44:22.751Z,3.77
2022-08-16T18:46:33.624Z,2.80
2022-08-16T18:49:00.882Z,2.83
2022-08-16T18:51:28.134Z,3.33
2022-08-16T18:53:55.315Z,3.40
2022-08-16T18:56:22.519Z,2.93
2022-08-16T18:58:49.817Z,3.70
2022-08-16T19:01:17.829Z,3.40
2022-08-16T19:03:45.149Z,3.13
2022-08-16T19:06:14.250Z,3.47
2022-08-16T19:08:44.136Z,3.10
2022-08-16T19:11:15.633Z,3.63
2022-08-16T19:13:42.896Z,3.30
2022-08-16T19:16:10.148Z,3.67
2022-08-16T19:18:37.367Z,3.37
2022-08-16T19:21:07.318Z,3.37
2022-08-16T19:23:37.185Z,3.30
2022-08-16T19:26:24.958Z,4.97
2022-08-16T19:28:58.607Z,3.33
2022-08-16T19:31:31.445Z,3.50
2022-08-16T19:33:59.321Z,3.20
2022-08-16T19:36:37.086Z,2.97
2022-08-16T19:39:06.719Z,3.57
2022-08-16T19:41:38.595Z,4.10
2022-08-16T19:44:07.759Z,4.00
2022-08-16T19:46:35.337Z,3.73
2022-08-16T19:49:02.990Z,3.63
2022-08-16T19:51:30.247Z,3.30
2022-08-16T19:53:57.465Z,3.30
2022-08-16T19:56:24.675Z,3.50
2022-08-16T19:59:17.335Z,3.53
2022-08-16T20:01:42.222Z,3.17
2022-08-16T20:04:12.490Z,3.60
2022-08-16T20:06:41.218Z,3.77
2022-08-16T20:09:08.445Z,3.63
2022-08-16T20:11:37.810Z,3.60
2022-08-16T20:14:05.298Z,3.80
2022-08-16T20:16:32.489Z,4.07
2022-08-16T20:18:59.682Z,3.70
2022-08-16T20:21:28.455Z,3.63
2022-08-16T20:24:05.040Z,3.47
2022-08-16T20:26:42.887Z,3.60
2022-08-16T20:29:10.098Z,4.07
2022-08-16T20:31:37.421Z,4.00
2022-08-16T20:34:04.769Z,3.70
2022-08-16T20:36:32.158Z,3.77
2022-08-16T20:38:59.421Z,4.20
2022-08-16T20:41:27.518Z,3.60
2022-08-16T20:43:55.143Z,3.50
2022-08-16T20:46:22.702Z,4.40
2022-08-16T20:48:49.989Z,3.90
2022-08-16T20:51:17.574Z,3.53
2022-08-16T20:53:44.731Z,3.87
2022-08-16T20:56:12.136Z,4.03
2022-08-16T20:58:39.658Z,3.73
2022-08-16T21:01:07.897Z,3.67
2022-08-16T21:03:36.881Z,3.83
2022-08-16T21:06:04.744Z,3.53
2022-08-16T21:08:51.551Z,3.57
2022-08-16T21:11:20.298Z,3.63
2022-08-16T21:13:47.518Z,4.00
2022-08-16T21:16:15.086Z,4.00
2022-08-16T21:18:42.466Z,4.17
2022-08-16T21:21:09.713Z,3.70
2022-08-16T21:23:36.903Z,3.83
2022-08-16T21:26:07.360Z,3.83
2022-08-16T21:28:40.719Z,4.10
2022-08-16T21:31:15.387Z,4.13
2022-08-16T21:33:43.722Z,3.83
2022-08-16T21:36:12.186Z,3.50
2022-08-16T21:38:40.313Z,3.67
2022-08-16T21:41:08.696Z,4.10
2022-08-16T21:43:36.189Z,4.00
2022-08-16T21:46:05.291Z,3.83
2022-08-16T21:48:34.884Z,3.90
2022-08-16T21:51:05.865Z,3.87
2022-08-16T21:53:33.125Z,3.43
2022-08-16T21:56:00.675Z,3.73
2022-08-16T21:58:28.573Z,3.50
2022-08-16T22:00:56.239Z,4.17
2022-08-16T22:03:23.606Z,4.67
2022-08-16T22:05:59.941Z,3.77
2022-08-16T22:08:46.820Z,4.20
2022-08-16T22:11:20.526Z,3.93
2022-08-16T22:13:51.218Z,4.17
2022-08-16T22:16:28.045Z,3.80
2022-08-16T22:18:55.425Z,4.63
2022-08-16T22:21:22.935Z,4.20
2022-08-16T22:23:56.961Z,4.17
2022-08-16T22:26:31.887Z,4.00
2022-08-16T22:29:08.896Z,3.60
2022-08-16T22:31:37.723Z,4.60
2022-08-16T22:34:05.271Z,3.93
2022-08-16T22:36:33.154Z,3.97
2022-08-16T22:39:02.246Z,3.50
2022-08-16T22:41:30.427Z,3.83
2022-08-16T22:43:58.144Z,3.70
2022-08-16T22:46:25.681Z,4.40
2022-08-16T22:48:53.206Z,4.27
2022-08-16T22:51:21.499Z,3.97
2022-08-16T22:53:49.261Z,4.63
2022-08-16T22:56:16.943Z,4.47
2022-08-16T22:58:44.917Z,4.20
2022-08-16T23:01:12.861Z,3.83
2022-08-16T23:03:40.726Z,3.40
2022-08-16T23:06:08.752Z,4.40
2022-08-16T23:08:40.043Z,4.47
2022-08-16T23:11:10.213Z,4.53
2022-08-16T23:13:37.812Z,5.50
2022-08-16T23:16:18.532Z,4.97
2022-08-16T23:18:46.008Z,4.23
2022-08-16T23:21:13.491Z,4.97
2022-08-16T23:23:41.002Z,5.33
2022-08-16T23:26:46.488Z,4.33
2022-08-16T23:28:56.432Z,4.87
2022-08-16T23:31:23.925Z,4.90
2022-08-16T23:33:51.446Z,4.70
2022-08-16T23:36:18.937Z,5.10
2022-08-16T23:38:46.409Z,5.10
2022-08-16T23:41:14.556Z,5.27
2022-08-16T23:43:42.888Z,5.20
2022-08-16T23:46:15.470Z,5.27
2022-08-16T23:49:56.239Z,5.30
2022-08-16T23:51:35.210Z,4.97
2022-08-16T23:54:02.776Z,4.73
2022-08-16T23:56:35.501Z,5.07
2022-08-16T23:59:07.925Z,4.77
